createdAt,value
2022-11-24T00:00:06.078Z,968.9
2022-11-24T00:05:44.070Z,968.62
2022-11-24T00:11:15.812Z,968.68
2022-11-24T00:16:48.432Z,969.15
2022-11-24T00:22:19.568Z,968.88
2022-11-24T00:27:51.283Z,968.97
2022-11-24T00:33:22.893Z,968.89
2022-11-24T00:38:54.542Z,969.49
2022-11-24T00:44:26.438Z,969.25
2022-11-24T00:49:58.021Z,969.58
2022-11-24T00:55:30.446Z,969.38
2022-11-24T01:01:01.901Z,969.4
2022-11-24T01:06:40.290Z,969.9
2022-11-24T01:12:11.213Z,970.16
2022-11-24T01:17:43.127Z,969.45
2022-11-24T01:23:14.784Z,969.39
2022-11-24T01:28:48.634Z,969.67
2022-11-24T01:34:18.031Z,969.6
2022-11-24T01:39:49.660Z,969.57
2022-11-24T01:45:21.683Z,969.9
2022-11-24T01:50:53.238Z,970.08
2022-11-24T01:56:24.818Z,969.94
2022-11-24T02:01:56.981Z,970.19
2022-11-24T02:07:35.390Z,970.64
2022-11-24T02:13:06.505Z,970.32
2022-11-24T02:18:38.238Z,970.69
2022-11-24T02:24:09.821Z,970.66
2022-11-24T02:29:41.973Z,970.45
2022-11-24T02:35:13.354Z,970.75
2022-11-24T02:40:45.361Z,970.72
2022-11-24T02:46:17.025Z,970.86
2022-11-24T02:51:48.465Z,970.82
2022-11-24T02:57:20.066Z,970.84
2022-11-24T03:02:52.138Z,970.71
2022-11-24T03:08:28.142Z,970.52
2022-11-24T03:13:59.704Z,970.36
2022-11-24T03:19:31.711Z,970.12
2022-11-24T03:25:03.302Z,970.38
2022-11-24T03:30:35.045Z,970.37
2022-11-24T03:36:06.602Z,970.44
2022-11-24T03:41:38.298Z,970.43
2022-11-24T03:47:10.062Z,971.01
2022-11-24T03:52:41.902Z,970.85
2022-11-24T03:58:13.682Z,971.28
2022-11-24T04:03:45.394Z,971.18
2022-11-24T04:09:21.327Z,971.09
2022-11-24T04:14:53.350Z,971.09
2022-11-24T04:20:24.753Z,971.02
2022-11-24T04:25:56.618Z,971.32
2022-11-24T04:31:28.602Z,971.38
2022-11-24T04:37:00.093Z,971.62
2022-11-24T04:42:32.052Z,971.45
2022-11-24T04:48:03.384Z,971.44
2022-11-24T04:53:35.306Z,971.44
2022-11-24T04:59:09.457Z,971.05
2022-11-24T05:04:39.096Z,971.48
2022-11-24T05:10:14.790Z,971.44
2022-11-24T05:15:46.707Z,971.44
2022-11-24T05:21:18.095Z,972.15
2022-11-24T05:26:49.812Z,971.38
2022-11-24T05:32:21.997Z,971.58
2022-11-24T05:37:54.123Z,971.63
2022-11-24T05:43:25.345Z,971.52
2022-11-24T05:48:57.087Z,971.37
2022-11-24T05:54:28.807Z,972.19
2022-11-24T06:00:00.471Z,971.84
2022-11-24T06:05:31.934Z,972.09
2022-11-24T06:11:07.910Z,971.93
2022-11-24T06:16:40.756Z,971.98
2022-11-24T06:22:11.571Z,971.98
2022-11-24T06:33:14.992Z,972.18
2022-11-24T06:38:46.704Z,972.75
2022-11-24T06:44:18.341Z,972.82
2022-11-24T06:49:50.447Z,972.84
2022-11-24T06:55:22.602Z,972.63
2022-11-24T07:00:54.297Z,972.68
2022-11-24T07:06:26.076Z,972.96
2022-11-24T07:12:02.505Z,973.12
2022-11-24T07:17:33.822Z,972.98
2022-11-24T07:23:05.568Z,973.1
2022-11-24T07:28:37.905Z,973.31
2022-11-24T07:34:09.211Z,973.45
2022-11-24T07:39:40.966Z,973.54
2022-11-24T07:45:12.674Z,974.07
2022-11-24T07:50:44.206Z,973.65
2022-11-24T07:56:16.199Z,973.9
2022-11-24T08:01:48.195Z,973.8
2022-11-24T08:07:20.197Z,973.97
2022-11-24T08:12:56.031Z,973.66
2022-11-24T08:18:28.273Z,973.71
2022-11-24T08:24:01.031Z,973.74
2022-11-24T08:29:32.530Z,973.94
2022-11-24T08:35:15.144Z,973.96
2022-11-24T08:40:36.078Z,974.38
2022-11-24T08:46:07.876Z,974.23
2022-11-24T08:51:39.406Z,974.44
2022-11-24T08:57:10.949Z,974.73
2022-11-24T09:02:42.674Z,974.05
2022-11-24T09:08:14.611Z,974.28
2022-11-24T09:13:50.498Z,974.32
2022-11-24T09:19:22.599Z,974.52
2022-11-24T09:24:54.067Z,974.33
2022-11-24T09:30:26.685Z,974.82
2022-11-24T09:35:57.462Z,974.8
2022-11-24T09:41:29.161Z,974.92
2022-11-24T09:47:01.354Z,975.18
2022-11-24T09:52:33.202Z,975.08
2022-11-24T09:58:04.454Z,975.57
2022-11-24T10:03:36.383Z,975.96
2022-11-24T10:09:07.866Z,976.59
2022-11-24T10:14:43.965Z,976.41
2022-11-24T10:20:16.103Z,976.24
2022-11-24T10:25:47.647Z,976.53
2022-11-24T10:31:19.465Z,976.58
2022-11-24T10:36:51.404Z,977.03
2022-11-24T10:42:22.747Z,977.21
2022-11-24T10:47:54.594Z,977.37
2022-11-24T10:53:26.361Z,977.42
2022-11-24T10:58:58.376Z,977.35
2022-11-24T11:04:29.458Z,977.65
2022-11-24T11:10:01.038Z,977.31
2022-11-24T11:15:37.557Z,977.42
2022-11-24T11:21:09.278Z,977.31
2022-11-24T11:26:40.651Z,977.59
2022-11-24T11:37:44.107Z,977.21
2022-11-24T11:43:15.873Z,977.48
2022-11-24T11:48:48.058Z,977.96
2022-11-24T11:54:19.300Z,978.39
2022-11-24T11:59:51.076Z,977.73
2022-11-24T12:05:22.886Z,977.42
2022-11-24T12:10:54.624Z,977.31
2022-11-24T12:16:32.783Z,977.26
2022-11-24T12:22:04.697Z,977.46
2022-11-24T12:27:38.082Z,977.44
2022-11-24T12:33:07.862Z,977.28
2022-11-24T12:38:40.282Z,977.17
2022-11-24T12:44:11.298Z,977.25
2022-11-24T12:49:43.275Z,977.47
2022-11-24T12:55:14.855Z,977.65
2022-11-24T13:00:46.690Z,977.68
2022-11-24T13:06:18.598Z,978.41
2022-11-24T13:11:49.888Z,978.8
2022-11-24T13:18:07.076Z,978.65
2022-11-24T13:22:57.614Z,977.95
2022-11-24T13:29:06.028Z,977.79
2022-11-24T13:34:01.606Z,977.47
2022-11-24T13:39:44.794Z,976.98
2022-11-24T13:45:04.626Z,977.41
2022-11-24T13:50:36.818Z,977.49
2022-11-24T13:56:08.319Z,977.36
2022-11-24T14:01:40.039Z,977.57
2022-11-24T14:07:11.533Z,977.71
2022-11-24T14:12:43.102Z,976.82
2022-11-24T14:18:21.203Z,977.18
2022-11-24T14:23:53.753Z,977.28
2022-11-24T14:29:24.798Z,977.25
2022-11-24T14:34:56.627Z,976.71
2022-11-24T14:40:28.780Z,976.68
2022-11-24T14:46:00.280Z,976.82
2022-11-24T14:51:32.191Z,976.89
2022-11-24T14:57:03.643Z,976.96
2022-11-24T15:02:35.513Z,977.3
2022-11-24T15:08:06.952Z,977.44
2022-11-24T15:13:38.658Z,977.23
2022-11-24T15:19:15.256Z,976.78
2022-11-24T15:24:46.535Z,976.88
2022-11-24T15:30:18.146Z,977.65
2022-11-24T15:35:50.273Z,977.37
2022-11-24T15:41:21.694Z,977.12
2022-11-24T15:46:53.626Z,976.69
2022-11-24T15:52:25.852Z,976.75
2022-11-24T15:57:56.922Z,976.15
2022-11-24T16:03:49.424Z,976.09
2022-11-24T16:09:00.282Z,976.19
2022-11-24T16:14:32.283Z,976.13
2022-11-24T16:20:08.545Z,975.76
2022-11-24T16:25:39.732Z,975.76
2022-11-24T16:31:12.718Z,975.68
2022-11-24T16:36:44.339Z,975.29
2022-11-24T16:42:15.756Z,975.37
2022-11-24T16:47:47.503Z,975.36
2022-11-24T16:53:19.429Z,975.2
2022-11-24T16:58:51.244Z,974.75
2022-11-24T17:04:22.879Z,974.92
2022-11-24T17:09:54.391Z,974.79
2022-11-24T17:15:45.398Z,974.83
2022-11-24T17:21:10.722Z,974.8
2022-11-24T17:26:34.079Z,974.72
2022-11-24T17:32:06.015Z,974.63
2022-11-24T17:37:37.787Z,974.47
2022-11-24T17:43:09.359Z,974.56
2022-11-24T17:48:41.018Z,974.43
2022-11-24T17:54:57.529Z,974.14
2022-11-24T17:59:45.452Z,974.1
2022-11-24T18:05:16.914Z,974.28
2022-11-24T18:10:48.793Z,974.39
2022-11-24T18:16:20.674Z,974.25
2022-11-24T18:21:56.557Z,974.35
2022-11-24T18:27:28.440Z,974.37
2022-11-24T18:33:00.098Z,974.37
2022-11-24T18:38:31.792Z,974.45
2022-11-24T18:44:03.530Z,974.26
2022-11-24T18:49:35.044Z,974.28
2022-11-24T18:55:07.109Z,974.2
2022-11-24T19:00:38.803Z,974.03
2022-11-24T19:06:10.614Z,973.75
2022-11-24T19:11:42.926Z,974.06
2022-11-24T19:17:13.961Z,974.27
2022-11-24T19:22:49.780Z,974.18
2022-11-24T19:28:21.597Z,974.05
2022-11-24T19:33:53.468Z,973.97
2022-11-24T19:39:25.112Z,973.49
2022-11-24T19:44:57.798Z,973.61
2022-11-24T19:50:29.139Z,973.97
2022-11-24T19:56:00.530Z,974.1
2022-11-24T20:01:32.410Z,974.03
2022-11-24T20:07:04.671Z,973.81
2022-11-24T20:12:35.611Z,973.72
2022-11-24T20:18:07.652Z,973.69
2022-11-24T20:23:48.338Z,973.61
2022-11-24T20:29:21.305Z,973.9
2022-11-24T20:34:53.100Z,973.75
2022-11-24T20:40:24.533Z,973.92
2022-11-24T20:45:57.311Z,973.85
2022-11-24T20:51:31.061Z,973.83
2022-11-24T20:57:02.910Z,973.78
2022-11-24T21:02:34.392Z,973.43
2022-11-24T21:08:06.021Z,973.26
2022-11-24T21:13:37.830Z,973.43
2022-11-24T21:19:09.807Z,973.54
2022-11-24T21:24:45.810Z,973.2
2022-11-24T21:30:17.586Z,973.19
2022-11-24T21:35:49.325Z,973.12
2022-11-24T21:41:20.800Z,972.96
2022-11-24T21:46:56.895Z,973.06
2022-11-24T21:52:25.090Z,973.09
2022-11-24T21:57:55.919Z,972.79
2022-11-24T22:03:27.639Z,972.49
2022-11-24T22:08:59.799Z,972.66
2022-11-24T22:14:34.972Z,972.66
2022-11-24T22:20:02.955Z,972.71
2022-11-24T22:25:39.267Z,972.7
2022-11-24T22:31:10.887Z,972.6
2022-11-24T22:36:42.616Z,972.41
2022-11-24T22:42:14.290Z,972.25
2022-11-24T22:47:46.087Z,972.08
2022-11-24T22:53:17.956Z,972.17
2022-11-24T22:58:49.880Z,972.27
2022-11-24T23:04:21.454Z,972.27
2022-11-24T23:09:52.802Z,972.25
2022-11-24T23:15:24.848Z,972.29
2022-11-24T23:20:56.209Z,972.24
2022-11-24T23:26:32.279Z,972.17
2022-11-24T23:32:04.341Z,972.19
2022-11-24T23:38:08.473Z,972.08
2022-11-24T23:43:07.488Z,972.24
2022-11-24T23:48:39.734Z,972.12
2022-11-24T23:54:10.896Z,972.17
2022-11-24T23:59:42.624Z,971.95
